Etusivu
METAR-TAF:

METAR-TAF

Lentoasemat :

Georgetown Municipal Airport

Georgetown, Texas, Yhdysvallat

Leveyspiiri: 30-41N, Pituuspiiri: 097-41W, korkeus merenpinnasta: 240 m

Tämänhetkinen sää

Tämä raportti tehtiin 55 minuuttia sitten, kello 15.56 UTC
Tuuli 13 kn etelästä
Lämpötila 29°C
Kosteus 70%
Ilmanpaine 1009 hPa
Näkyvyys: 9.7 km
Pilvistä 2200 ft:n korkeudessa
usvaa

METAR: KGTU 241556Z 19013KT 6SM HZ OVC022 29/23 A2980 RMK AO2 SLP082 T02940233

Aika: 11:51 (16:51 UTC)


TAF: puuttuu

Säähavainnot ja -ennusteet yli 4000 lentoasemalta (METAR- ja TAF-raportit).

Käytössä olevat sääasemat on merkitty karttaan keltaisilla ja punaisilla pisteillä.

Aseta hiiri pisteen päälle nähdäksesi sääaseman nimen.

Klikkaa sitten nähdäksesi säähavainnot ja -ennusteet.

Kartan vaihtaminen: klikkaa mustalla rastilla varustettuja vihreitä pisteitä, niin voit zoomata sisään; viivalla varustettua vihreää pistettä, niin voit zoomata ulos tai vihreitä nuolia, niin pääset viereisille kartoille.


METAR-TAF: